sensor_id;sensor_type;location;lat;lon;timestamp;temperature;humidity
612;DHT22;293;53.888;11.464;2023-06-26T00:00:19;21.30;99.90
612;DHT22;293;53.888;11.464;2023-06-26T00:02:45;21.30;99.90
612;DHT22;293;53.888;11.464;2023-06-26T00:05:12;21.20;99.90
612;DHT22;293;53.888;11.464;2023-06-26T00:07:41;21.20;99.90
612;DHT22;293;53.888;11.464;2023-06-26T00:10:08;21.20;99.90
612;DHT22;293;53.888;11.464;2023-06-26T00:12:35;21.20;99.90
612;DHT22;293;53.888;11.464;2023-06-26T00:15:02;21.10;99.90
612;DHT22;293;53.888;11.464;2023-06-26T00:17:29;21.10;99.90
612;DHT22;293;53.888;11.464;2023-06-26T00:19:56;21.10;99.90
612;DHT22;293;53.888;11.464;2023-06-26T00:22:22;21.10;99.90
612;DHT22;293;53.888;11.464;2023-06-26T00:24:51;21.10;99.90
612;DHT22;293;53.888;11.464;2023-06-26T00:27:17;21.00;99.90
612;DHT22;293;53.888;11.464;2023-06-26T00:29:44;21.10;99.90
612;DHT22;293;53.888;11.464;2023-06-26T00:32:11;21.00;99.90
612;DHT22;293;53.888;11.464;2023-06-26T00:34:38;21.00;99.90
612;DHT22;293;53.888;11.464;2023-06-26T00:37:05;21.00;99.90
612;DHT22;293;53.888;11.464;2023-06-26T00:39:32;21.00;99.90
612;DHT22;293;53.888;11.464;2023-06-26T00:42:00;21.00;99.90
612;DHT22;293;53.888;11.464;2023-06-26T00:44:27;21.00;99.90
612;DHT22;293;53.888;11.464;2023-06-26T00:46:54;21.00;99.90
612;DHT22;293;53.888;11.464;2023-06-26T00:49:22;21.00;99.90
612;DHT22;293;53.888;11.464;2023-06-26T00:51:49;21.00;99.90
612;DHT22;293;53.888;11.464;2023-06-26T00:54:16;20.90;99.90
612;DHT22;293;53.888;11.464;2023-06-26T00:56:45;20.90;99.90
612;DHT22;293;53.888;11.464;2023-06-26T00:59:14;20.90;99.90
612;DHT22;293;53.888;11.464;2023-06-26T01:01:41;20.90;99.90
612;DHT22;293;53.888;11.464;2023-06-26T01:04:08;20.90;99.90
612;DHT22;293;53.888;11.464;2023-06-26T01:06:45;20.80;99.90
612;DHT22;293;53.888;11.464;2023-06-26T01:09:15;20.80;99.90
612;DHT22;293;53.888;11.464;2023-06-26T01:11:42;20.80;99.90
612;DHT22;293;53.888;11.464;2023-06-26T01:14:09;20.80;99.90
612;DHT22;293;53.888;11.464;2023-06-26T01:16:38;20.80;99.90
612;DHT22;293;53.888;11.464;2023-06-26T01:19:10;20.70;99.90
612;DHT22;293;53.888;11.464;2023-06-26T01:21:42;20.80;99.90
612;DHT22;293;53.888;11.464;2023-06-26T01:24:15;20.70;99.90
612;DHT22;293;53.888;11.464;2023-06-26T01:26:49;20.70;99.90
612;DHT22;293;53.888;11.464;2023-06-26T01:29:17;20.70;99.90
612;DHT22;293;53.888;11.464;2023-06-26T01:31:46;20.70;99.90
612;DHT22;293;53.888;11.464;2023-06-26T01:34:15;20.70;99.90
612;DHT22;293;53.888;11.464;2023-06-26T01:36:44;20.60;99.90
612;DHT22;293;53.888;11.464;2023-06-26T01:39:12;20.60;99.90
612;DHT22;293;53.888;11.464;2023-06-26T01:41:39;20.60;99.90
612;DHT22;293;53.888;11.464;2023-06-26T01:44:18;20.60;99.90
612;DHT22;293;53.888;11.464;2023-06-26T01:46:57;20.60;99.90
612;DHT22;293;53.888;11.464;2023-06-26T01:49:31;20.60;99.90
612;DHT22;293;53.888;11.464;2023-06-26T01:52:06;20.50;99.90
612;DHT22;293;53.888;11.464;2023-06-26T01:54:39;20.60;99.90
612;DHT22;293;53.888;11.464;2023-06-26T01:57:10;20.50;99.90
612;DHT22;293;53.888;11.464;2023-06-26T01:59:40;20.50;99.90
612;DHT22;293;53.888;11.464;2023-06-26T02:02:08;20.50;99.90
612;DHT22;293;53.888;11.464;2023-06-26T02:04:35;20.50;99.90
612;DHT22;293;53.888;11.464;2023-06-26T02:07:03;20.50;99.90
612;DHT22;293;53.888;11.464;2023-06-26T02:09:30;20.50;99.90
612;DHT22;293;53.888;11.464;2023-06-26T02:11:56;20.50;99.90
612;DHT22;293;53.888;11.464;2023-06-26T02:14:23;20.50;99.90
612;DHT22;293;53.888;11.464;2023-06-26T02:16:52;20.50;99.90
612;DHT22;293;53.888;11.464;2023-06-26T02:19:18;20.50;99.90
612;DHT22;293;53.888;11.464;2023-06-26T02:21:47;20.50;99.90
612;DHT22;293;53.888;11.464;2023-06-26T02:24:14;20.50;99.90
612;DHT22;293;53.888;11.464;2023-06-26T02:26:41;20.40;99.90
612;DHT22;293;53.888;11.464;2023-06-26T02:29:08;20.40;99.90
612;DHT22;293;53.888;11.464;2023-06-26T02:31:35;20.40;99.90
612;DHT22;293;53.888;11.464;2023-06-26T02:34:04;20.40;99.90
612;DHT22;293;53.888;11.464;2023-06-26T02:36:31;20.30;99.90
612;DHT22;293;53.888;11.464;2023-06-26T02:38:58;20.30;99.90
612;DHT22;293;53.888;11.464;2023-06-26T02:41:24;20.30;99.90
612;DHT22;293;53.888;11.464;2023-06-26T02:43:51;20.30;99.90
612;DHT22;293;53.888;11.464;2023-06-26T02:46:18;20.30;99.90
612;DHT22;293;53.888;11.464;2023-06-26T02:48:45;20.30;99.90
612;DHT22;293;53.888;11.464;2023-06-26T02:51:13;20.30;99.90
612;DHT22;293;53.888;11.464;2023-06-26T02:53:40;20.20;99.90
612;DHT22;293;53.888;11.464;2023-06-26T02:56:07;20.30;99.90
612;DHT22;293;53.888;11.464;2023-06-26T02:58:34;20.20;99.90
612;DHT22;293;53.888;11.464;2023-06-26T03:01:01;20.20;99.90
612;DHT22;293;53.888;11.464;2023-06-26T03:03:27;20.20;99.90
612;DHT22;293;53.888;11.464;2023-06-26T03:05:54;20.20;99.90
612;DHT22;293;53.888;11.464;2023-06-26T03:08:23;20.30;99.90
612;DHT22;293;53.888;11.464;2023-06-26T03:10:50;20.30;99.90
612;DHT22;293;53.888;11.464;2023-06-26T03:13:17;20.30;99.90
612;DHT22;293;53.888;11.464;2023-06-26T03:15:44;20.30;99.90
612;DHT22;293;53.888;11.464;2023-06-26T03:18:11;20.30;99.90
612;DHT22;293;53.888;11.464;2023-06-26T03:20:38;20.40;99.90
612;DHT22;293;53.888;11.464;2023-06-26T03:23:05;20.40;99.90
612;DHT22;293;53.888;11.464;2023-06-26T03:25:33;20.40;99.90
612;DHT22;293;53.888;11.464;2023-06-26T03:28:00;20.40;99.90
612;DHT22;293;53.888;11.464;2023-06-26T03:30:27;20.50;99.90
612;DHT22;293;53.888;11.464;2023-06-26T03:32:53;20.50;99.90
612;DHT22;293;53.888;11.464;2023-06-26T03:35:20;20.60;99.90
612;DHT22;293;53.888;11.464;2023-06-26T03:37:48;20.60;99.90
612;DHT22;293;53.888;11.464;2023-06-26T03:40:15;20.80;99.90
612;DHT22;293;53.888;11.464;2023-06-26T03:42:43;21.10;99.90
612;DHT22;293;53.888;11.464;2023-06-26T03:45:10;21.90;99.90
612;DHT22;293;53.888;11.464;2023-06-26T03:47:37;22.70;99.90
612;DHT22;293;53.888;11.464;2023-06-26T03:50:05;23.50;99.90
612;DHT22;293;53.888;11.464;2023-06-26T03:52:32;24.30;99.90
612;DHT22;293;53.888;11.464;2023-06-26T03:54:59;24.80;99.90
612;DHT22;293;53.888;11.464;2023-06-26T03:57:26;25.40;99.90
612;DHT22;293;53.888;11.464;2023-06-26T03:59:54;26.10;98.70
612;DHT22;293;53.888;11.464;2023-06-26T04:02:21;26.70;97.50
612;DHT22;293;53.888;11.464;2023-06-26T04:04:48;27.30;95.70
612;DHT22;293;53.888;11.464;2023-06-26T04:07:15;27.90;94.50
612;DHT22;293;53.888;11.464;2023-06-26T04:09:42;28.40;93.30
612;DHT22;293;53.888;11.464;2023-06-26T04:12:09;28.90;92.50
612;DHT22;293;53.888;11.464;2023-06-26T04:14:36;29.30;91.30
612;DHT22;293;53.888;11.464;2023-06-26T04:17:04;29.60;90.40
612;DHT22;293;53.888;11.464;2023-06-26T04:19:31;30.00;89.50
612;DHT22;293;53.888;11.464;2023-06-26T04:21:58;30.30;88.40
612;DHT22;293;53.888;11.464;2023-06-26T04:24:25;30.60;86.80
612;DHT22;293;53.888;11.464;2023-06-26T04:26:52;30.90;85.70
612;DHT22;293;53.888;11.464;2023-06-26T04:29:21;31.20;84.10
612;DHT22;293;53.888;11.464;2023-06-26T04:31:50;31.40;82.90
612;DHT22;293;53.888;11.464;2023-06-26T04:34:19;31.70;81.70
612;DHT22;293;53.888;11.464;2023-06-26T04:36:46;32.20;80.50
612;DHT22;293;53.888;11.464;2023-06-26T04:39:13;32.60;78.70
612;DHT22;293;53.888;11.464;2023-06-26T04:41:40;33.10;77.20
612;DHT22;293;53.888;11.464;2023-06-26T04:44:07;33.50;76.20
612;DHT22;293;53.888;11.464;2023-06-26T04:46:34;34.00;74.80
612;DHT22;293;53.888;11.464;2023-06-26T04:49:01;34.50;73.10
612;DHT22;293;53.888;11.464;2023-06-26T04:51:30;35.30;68.80
612;DHT22;293;53.888;11.464;2023-06-26T04:53:57;35.40;70.30
612;DHT22;293;53.888;11.464;2023-06-26T04:56:23;35.60;68.90
612;DHT22;293;53.888;11.464;2023-06-26T04:58:50;35.70;68.30
612;DHT22;293;53.888;11.464;2023-06-26T05:01:17;35.80;67.10
612;DHT22;293;53.888;11.464;2023-06-26T05:03:44;35.90;66.80
612;DHT22;293;53.888;11.464;2023-06-26T05:06:11;35.80;66.40
612;DHT22;293;53.888;11.464;2023-06-26T05:08:39;36.10;65.60
612;DHT22;293;53.888;11.464;2023-06-26T05:11:06;36.20;66.30
612;DHT22;293;53.888;11.464;2023-06-26T05:16:00;37.10;63.00
612;DHT22;293;53.888;11.464;2023-06-26T05:18:27;37.70;62.40
612;DHT22;293;53.888;11.464;2023-06-26T05:20:54;38.40;61.50
612;DHT22;293;53.888;11.464;2023-06-26T05:23:23;39.20;59.10
612;DHT22;293;53.888;11.464;2023-06-26T05:25:53;40.00;57.60
612;DHT22;293;53.888;11.464;2023-06-26T05:28:21;40.80;56.20
612;DHT22;293;53.888;11.464;2023-06-26T05:30:50;41.70;54.60
612;DHT22;293;53.888;11.464;2023-06-26T05:33:18;42.60;53.10
612;DHT22;293;53.888;11.464;2023-06-26T05:35:46;43.40;50.90
612;DHT22;293;53.888;11.464;2023-06-26T05:38:14;43.90;49.50
612;DHT22;293;53.888;11.464;2023-06-26T05:40:42;44.40;48.20
612;DHT22;293;53.888;11.464;2023-06-26T05:43:11;46.80;48.60
612;DHT22;293;53.888;11.464;2023-06-26T05:45:38;45.40;45.80
612;DHT22;293;53.888;11.464;2023-06-26T05:48:04;45.50;44.10
612;DHT22;293;53.888;11.464;2023-06-26T05:50:32;45.60;43.30
612;DHT22;293;53.888;11.464;2023-06-26T05:53:00;45.60;42.90
612;DHT22;293;53.888;11.464;2023-06-26T05:55:29;45.70;42.60
612;DHT22;293;53.888;11.464;2023-06-26T05:57:58;45.90;42.50
612;DHT22;293;53.888;11.464;2023-06-26T06:00:28;45.90;41.60
612;DHT22;293;53.888;11.464;2023-06-26T06:05:22;45.90;41.40
612;DHT22;293;53.888;11.464;2023-06-26T06:07:49;46.10;42.00
612;DHT22;293;53.888;11.464;2023-06-26T06:10:16;46.10;41.70
612;DHT22;293;53.888;11.464;2023-06-26T06:12:43;45.90;41.40
612;DHT22;293;53.888;11.464;2023-06-26T06:15:10;46.10;42.00
612;DHT22;293;53.888;11.464;2023-06-26T06:17:38;46.30;41.10
612;DHT22;293;53.888;11.464;2023-06-26T06:20:05;46.50;39.80
612;DHT22;293;53.888;11.464;2023-06-26T06:22:33;46.80;40.20
612;DHT22;293;53.888;11.464;2023-06-26T06:25:00;46.80;39.20
612;DHT22;293;53.888;11.464;2023-06-26T06:27:27;46.80;38.70
612;DHT22;293;53.888;11.464;2023-06-26T06:29:54;46.80;39.90
612;DHT22;293;53.888;11.464;2023-06-26T06:32:21;47.00;39.50
612;DHT22;293;53.888;11.464;2023-06-26T06:34:49;47.00;38.40
612;DHT22;293;53.888;11.464;2023-06-26T06:37:16;47.00;38.20
612;DHT22;293;53.888;11.464;2023-06-26T06:39:43;47.00;38.80
612;DHT22;293;53.888;11.464;2023-06-26T06:42:10;47.00;38.10
612;DHT22;293;53.888;11.464;2023-06-26T06:44:37;46.80;38.30
612;DHT22;293;53.888;11.464;2023-06-26T06:47:03;46.60;37.80
612;DHT22;293;53.888;11.464;2023-06-26T06:49:30;46.50;38.60
612;DHT22;293;53.888;11.464;2023-06-26T06:51:58;46.30;38.10
612;DHT22;293;53.888;11.464;2023-06-26T06:54:26;46.10;38.30
612;DHT22;293;53.888;11.464;2023-06-26T06:56:53;45.70;39.20
612;DHT22;293;53.888;11.464;2023-06-26T06:59:20;45.40;39.70
612;DHT22;293;53.888;11.464;2023-06-26T07:01:46;44.80;41.10
612;DHT22;293;53.888;11.464;2023-06-26T07:04:13;43.70;42.40
612;DHT22;293;53.888;11.464;2023-06-26T07:06:40;42.50;43.00
612;DHT22;293;53.888;11.464;2023-06-26T07:09:08;41.20;44.10
612;DHT22;293;53.888;11.464;2023-06-26T07:11:35;39.80;46.00
612;DHT22;293;53.888;11.464;2023-06-26T07:14:02;38.50;48.20
612;DHT22;293;53.888;11.464;2023-06-26T07:16:29;37.30;49.90
612;DHT22;293;53.888;11.464;2023-06-26T07:18:56;36.30;52.40
612;DHT22;293;53.888;11.464;2023-06-26T07:21:23;34.90;54.90
612;DHT22;293;53.888;11.464;2023-06-26T07:23:49;34.80;55.40
612;DHT22;293;53.888;11.464;2023-06-26T07:26:18;34.40;56.80
612;DHT22;293;53.888;11.464;2023-06-26T07:28:44;33.80;56.90
612;DHT22;293;53.888;11.464;2023-06-26T07:31:12;33.30;57.30
612;DHT22;293;53.888;11.464;2023-06-26T07:33:39;32.70;57.70
612;DHT22;293;53.888;11.464;2023-06-26T07:36:05;32.40;59.20
612;DHT22;293;53.888;11.464;2023-06-26T07:38:32;32.20;60.50
612;DHT22;293;53.888;11.464;2023-06-26T07:40:59;31.90;61.10
612;DHT22;293;53.888;11.464;2023-06-26T07:43:27;31.70;62.40
612;DHT22;293;53.888;11.464;2023-06-26T07:45:54;31.40;62.80
612;DHT22;293;53.888;11.464;2023-06-26T07:48:24;31.30;63.10
612;DHT22;293;53.888;11.464;2023-06-26T07:50:51;31.10;64.20
612;DHT22;293;53.888;11.464;2023-06-26T07:53:17;31.00;63.90
612;DHT22;293;53.888;11.464;2023-06-26T07:55:44;30.90;65.30
612;DHT22;293;53.888;11.464;2023-06-26T07:58:11;30.80;65.70
612;DHT22;293;53.888;11.464;2023-06-26T08:00:40;30.80;65.20
612;DHT22;293;53.888;11.464;2023-06-26T08:03:07;30.70;65.50
612;DHT22;293;53.888;11.464;2023-06-26T08:05:34;30.70;66.00
612;DHT22;293;53.888;11.464;2023-06-26T08:08:00;30.70;66.00
612;DHT22;293;53.888;11.464;2023-06-26T08:10:28;30.70;66.30
612;DHT22;293;53.888;11.464;2023-06-26T08:12:57;30.70;65.90
612;DHT22;293;53.888;11.464;2023-06-26T08:15:24;30.70;67.20
612;DHT22;293;53.888;11.464;2023-06-26T08:17:52;30.80;66.10
612;DHT22;293;53.888;11.464;2023-06-26T08:20:19;30.80;65.80
612;DHT22;293;53.888;11.464;2023-06-26T08:22:46;30.80;65.70
612;DHT22;293;53.888;11.464;2023-06-26T08:25:14;30.80;65.90
612;DHT22;293;53.888;11.464;2023-06-26T08:27:41;30.70;66.20
612;DHT22;293;53.888;11.464;2023-06-26T08:30:09;30.60;66.00
612;DHT22;293;53.888;11.464;2023-06-26T08:32:36;30.60;67.40
612;DHT22;293;53.888;11.464;2023-06-26T08:35:05;30.60;67.00
612;DHT22;293;53.888;11.464;2023-06-26T08:37:32;30.60;66.80
612;DHT22;293;53.888;11.464;2023-06-26T08:39:59;30.50;66.50
612;DHT22;293;53.888;11.464;2023-06-26T08:42:26;30.50;65.50
612;DHT22;293;53.888;11.464;2023-06-26T08:44:53;30.40;65.70
612;DHT22;293;53.888;11.464;2023-06-26T08:47:21;30.40;66.20
612;DHT22;293;53.888;11.464;2023-06-26T08:49:56;30.40;65.70
612;DHT22;293;53.888;11.464;2023-06-26T08:52:31;30.40;65.50
612;DHT22;293;53.888;11.464;2023-06-26T08:55:02;30.50;65.90
612;DHT22;293;53.888;11.464;2023-06-26T08:57:32;30.50;66.80
612;DHT22;293;53.888;11.464;2023-06-26T09:00:00;30.50;65.40
612;DHT22;293;53.888;11.464;2023-06-26T09:02:27;30.50;66.30
612;DHT22;293;53.888;11.464;2023-06-26T09:04:54;30.50;64.60
612;DHT22;293;53.888;11.464;2023-06-26T09:07:21;30.50;65.10
612;DHT22;293;53.888;11.464;2023-06-26T09:09:50;30.50;65.90
612;DHT22;293;53.888;11.464;2023-06-26T09:12:17;30.50;64.60
612;DHT22;293;53.888;11.464;2023-06-26T09:14:44;30.50;64.00
612;DHT22;293;53.888;11.464;2023-06-26T09:17:12;30.60;64.90
612;DHT22;293;53.888;11.464;2023-06-26T09:19:39;30.50;64.80
612;DHT22;293;53.888;11.464;2023-06-26T09:22:11;30.60;66.00
612;DHT22;293;53.888;11.464;2023-06-26T09:24:41;30.60;65.00
612;DHT22;293;53.888;11.464;2023-06-26T09:27:09;30.60;64.40
612;DHT22;293;53.888;11.464;2023-06-26T09:29:37;30.70;64.70
612;DHT22;293;53.888;11.464;2023-06-26T09:32:04;30.70;64.60
612;DHT22;293;53.888;11.464;2023-06-26T09:34:32;30.80;64.20
612;DHT22;293;53.888;11.464;2023-06-26T09:36:59;30.80;64.10
612;DHT22;293;53.888;11.464;2023-06-26T09:39:30;30.90;63.40
612;DHT22;293;53.888;11.464;2023-06-26T09:41:58;30.90;64.00
612;DHT22;293;53.888;11.464;2023-06-26T09:44:26;30.90;64.10
612;DHT22;293;53.888;11.464;2023-06-26T09:46:55;30.90;63.40
612;DHT22;293;53.888;11.464;2023-06-26T09:49:23;31.00;63.60
612;DHT22;293;53.888;11.464;2023-06-26T09:51:51;31.00;62.80
612;DHT22;293;53.888;11.464;2023-06-26T09:54:21;31.00;63.40
612;DHT22;293;53.888;11.464;2023-06-26T09:56:48;31.00;63.70
612;DHT22;293;53.888;11.464;2023-06-26T09:59:15;31.00;64.80
612;DHT22;293;53.888;11.464;2023-06-26T10:01:45;31.00;64.40
612;DHT22;293;53.888;11.464;2023-06-26T10:04:14;31.10;64.10
612;DHT22;293;53.888;11.464;2023-06-26T10:06:45;31.10;64.10
612;DHT22;293;53.888;11.464;2023-06-26T10:09:14;31.10;64.50
612;DHT22;293;53.888;11.464;2023-06-26T10:11:48;31.10;64.40
612;DHT22;293;53.888;11.464;2023-06-26T10:14:17;31.10;64.10
612;DHT22;293;53.888;11.464;2023-06-26T10:16:48;31.00;64.00
612;DHT22;293;53.888;11.464;2023-06-26T10:19:18;31.00;64.60
612;DHT22;293;53.888;11.464;2023-06-26T10:21:50;31.10;64.40
612;DHT22;293;53.888;11.464;2023-06-26T10:24:18;31.10;65.00
612;DHT22;293;53.888;11.464;2023-06-26T10:26:46;31.10;63.70
612;DHT22;293;53.888;11.464;2023-06-26T10:29:16;31.10;63.10
612;DHT22;293;53.888;11.464;2023-06-26T10:31:49;31.10;64.80
612;DHT22;293;53.888;11.464;2023-06-26T10:34:16;31.30;64.70
612;DHT22;293;53.888;11.464;2023-06-26T10:36:44;31.30;63.10
612;DHT22;293;53.888;11.464;2023-06-26T10:39:12;31.30;62.00
612;DHT22;293;53.888;11.464;2023-06-26T10:41:41;31.30;62.80
612;DHT22;293;53.888;11.464;2023-06-26T10:44:10;31.40;61.70
612;DHT22;293;53.888;11.464;2023-06-26T10:46:50;31.50;62.00
612;DHT22;293;53.888;11.464;2023-06-26T10:49:18;31.80;62.50
612;DHT22;293;53.888;11.464;2023-06-26T10:51:49;31.90;62.00
612;DHT22;293;53.888;11.464;2023-06-26T10:54:17;32.00;61.50
612;DHT22;293;53.888;11.464;2023-06-26T10:56:45;32.00;60.30
612;DHT22;293;53.888;11.464;2023-06-26T10:59:15;32.10;59.90
612;DHT22;293;53.888;11.464;2023-06-26T11:01:43;32.00;60.20
612;DHT22;293;53.888;11.464;2023-06-26T11:04:13;32.00;61.60
612;DHT22;293;53.888;11.464;2023-06-26T11:06:45;32.20;60.70
612;DHT22;293;53.888;11.464;2023-06-26T11:09:15;32.40;60.80
612;DHT22;293;53.888;11.464;2023-06-26T11:12:00;32.50;60.20
612;DHT22;293;53.888;11.464;2023-06-26T11:14:33;32.80;59.50
612;DHT22;293;53.888;11.464;2023-06-26T11:17:05;32.80;59.90
612;DHT22;293;53.888;11.464;2023-06-26T11:19:33;32.80;59.40
612;DHT22;293;53.888;11.464;2023-06-26T11:22:04;32.60;59.50
612;DHT22;293;53.888;11.464;2023-06-26T11:24:32;32.40;60.20
612;DHT22;293;53.888;11.464;2023-06-26T11:27:01;31.60;61.50
612;DHT22;293;53.888;11.464;2023-06-26T11:29:29;31.20;63.00
612;DHT22;293;53.888;11.464;2023-06-26T11:32:00;30.80;64.40
612;DHT22;293;53.888;11.464;2023-06-26T11:34:30;30.60;65.70
612;DHT22;293;53.888;11.464;2023-06-26T11:39:28;29.10;72.70
612;DHT22;293;53.888;11.464;2023-06-26T11:41:55;28.30;75.90
612;DHT22;293;53.888;11.464;2023-06-26T11:44:22;28.10;77.00
612;DHT22;293;53.888;11.464;2023-06-26T11:46:52;27.80;79.20
612;DHT22;293;53.888;11.464;2023-06-26T11:49:22;27.30;82.30
612;DHT22;293;53.888;11.464;2023-06-26T11:51:53;26.90;87.80
612;DHT22;293;53.888;11.464;2023-06-26T11:54:26;26.80;90.60
612;DHT22;293;53.888;11.464;2023-06-26T11:56:54;26.50;91.10
612;DHT22;293;53.888;11.464;2023-06-26T11:59:23;26.30;91.60
612;DHT22;293;53.888;11.464;2023-06-26T12:01:51;26.10;92.50
612;DHT22;293;53.888;11.464;2023-06-26T12:04:18;25.90;91.80
612;DHT22;293;53.888;11.464;2023-06-26T12:06:47;25.80;91.60
612;DHT22;293;53.888;11.464;2023-06-26T12:09:16;25.60;91.70
612;DHT22;293;53.888;11.464;2023-06-26T12:11:47;25.30;92.20
612;DHT22;293;53.888;11.464;2023-06-26T12:14:15;25.30;95.00
612;DHT22;293;53.888;11.464;2023-06-26T12:16:43;25.10;97.00
612;DHT22;293;53.888;11.464;2023-06-26T12:19:10;24.90;97.90
612;DHT22;293;53.888;11.464;2023-06-26T12:21:48;24.60;98.10
612;DHT22;293;53.888;11.464;2023-06-26T12:24:19;24.60;98.80
612;DHT22;293;53.888;11.464;2023-06-26T12:26:50;24.60;98.80
612;DHT22;293;53.888;11.464;2023-06-26T12:29:20;24.70;99.10
612;DHT22;293;53.888;11.464;2023-06-26T12:31:50;24.50;98.00
612;DHT22;293;53.888;11.464;2023-06-26T12:34:20;24.60;98.60
612;DHT22;293;53.888;11.464;2023-06-26T12:36:48;24.30;99.10
612;DHT22;293;53.888;11.464;2023-06-26T12:39:16;23.90;99.60
612;DHT22;293;53.888;11.464;2023-06-26T12:41:48;23.80;99.90
612;DHT22;293;53.888;11.464;2023-06-26T12:44:23;23.50;99.90
612;DHT22;293;53.888;11.464;2023-06-26T12:46:54;23.20;99.90
612;DHT22;293;53.888;11.464;2023-06-26T12:49:29;23.20;99.90
612;DHT22;293;53.888;11.464;2023-06-26T12:51:57;23.20;99.90
612;DHT22;293;53.888;11.464;2023-06-26T12:54:24;23.20;99.90
612;DHT22;293;53.888;11.464;2023-06-26T12:56:53;23.30;99.90
612;DHT22;293;53.888;11.464;2023-06-26T12:59:20;23.20;99.90
612;DHT22;293;53.888;11.464;2023-06-26T13:01:47;23.20;99.90
612;DHT22;293;53.888;11.464;2023-06-26T13:04:14;23.00;99.90
612;DHT22;293;53.888;11.464;2023-06-26T13:06:41;23.10;99.90
612;DHT22;293;53.888;11.464;2023-06-26T13:09:07;23.20;99.90
612;DHT22;293;53.888;11.464;2023-06-26T13:11:36;23.50;99.90
612;DHT22;293;53.888;11.464;2023-06-26T13:14:05;23.50;99.90
612;DHT22;293;53.888;11.464;2023-06-26T13:16:32;23.70;99.90
612;DHT22;293;53.888;11.464;2023-06-26T13:18:59;23.90;99.90
612;DHT22;293;53.888;11.464;2023-06-26T13:21:27;24.30;99.90
612;DHT22;293;53.888;11.464;2023-06-26T13:23:53;24.30;99.90
612;DHT22;293;53.888;11.464;2023-06-26T13:26:21;24.40;99.90
612;DHT22;293;53.888;11.464;2023-06-26T13:28:48;24.70;99.90
612;DHT22;293;53.888;11.464;2023-06-26T13:31:17;25.20;99.90
612;DHT22;293;53.888;11.464;2023-06-26T13:33:44;25.20;99.90
612;DHT22;293;53.888;11.464;2023-06-26T13:36:11;25.30;99.90
612;DHT22;293;53.888;11.464;2023-06-26T13:38:38;25.60;99.50
612;DHT22;293;53.888;11.464;2023-06-26T13:41:05;25.80;98.60
612;DHT22;293;53.888;11.464;2023-06-26T13:43:32;25.80;97.50
612;DHT22;293;53.888;11.464;2023-06-26T13:46:00;25.90;97.00
612;DHT22;293;53.888;11.464;2023-06-26T13:48:29;25.90;96.40
612;DHT22;293;53.888;11.464;2023-06-26T13:50:58;25.90;95.90
612;DHT22;293;53.888;11.464;2023-06-26T13:53:25;25.70;95.80
612;DHT22;293;53.888;11.464;2023-06-26T13:55:52;25.70;95.40
612;DHT22;293;53.888;11.464;2023-06-26T13:58:18;25.70;94.10
612;DHT22;293;53.888;11.464;2023-06-26T14:00:49;25.70;93.40
612;DHT22;293;53.888;11.464;2023-06-26T14:03:16;25.80;93.10
612;DHT22;293;53.888;11.464;2023-06-26T14:05:45;25.90;92.70
612;DHT22;293;53.888;11.464;2023-06-26T14:08:12;25.90;91.70
612;DHT22;293;53.888;11.464;2023-06-26T14:10:39;25.80;91.00
612;DHT22;293;53.888;11.464;2023-06-26T14:13:06;25.70;90.40
612;DHT22;293;53.888;11.464;2023-06-26T14:15:34;25.70;90.50
612;DHT22;293;53.888;11.464;2023-06-26T14:18:02;25.90;89.70
612;DHT22;293;53.888;11.464;2023-06-26T14:20:30;25.80;88.00
612;DHT22;293;53.888;11.464;2023-06-26T14:22:59;25.80;88.20
612;DHT22;293;53.888;11.464;2023-06-26T14:25:26;25.70;87.60
612;DHT22;293;53.888;11.464;2023-06-26T14:27:54;25.70;87.00
612;DHT22;293;53.888;11.464;2023-06-26T14:30:21;25.50;86.70
612;DHT22;293;53.888;11.464;2023-06-26T14:32:48;25.40;87.20
612;DHT22;293;53.888;11.464;2023-06-26T14:35:15;25.40;86.40
612;DHT22;293;53.888;11.464;2023-06-26T14:37:42;25.10;86.20
612;DHT22;293;53.888;11.464;2023-06-26T14:40:12;25.10;87.80
612;DHT22;293;53.888;11.464;2023-06-26T14:42:38;25.00;87.50
612;DHT22;293;53.888;11.464;2023-06-26T14:45:06;25.10;87.90
612;DHT22;293;53.888;11.464;2023-06-26T14:47:33;25.30;87.60
612;DHT22;293;53.888;11.464;2023-06-26T14:50:00;25.30;86.30
612;DHT22;293;53.888;11.464;2023-06-26T14:52:27;25.40;83.90
612;DHT22;293;53.888;11.464;2023-06-26T14:54:54;25.30;82.00
612;DHT22;293;53.888;11.464;2023-06-26T14:57:22;25.30;81.30
612;DHT22;293;53.888;11.464;2023-06-26T14:59:49;25.20;80.50
612;DHT22;293;53.888;11.464;2023-06-26T15:02:16;25.20;81.10
612;DHT22;293;53.888;11.464;2023-06-26T15:04:43;25.10;79.70
612;DHT22;293;53.888;11.464;2023-06-26T15:07:11;25.00;80.00
612;DHT22;293;53.888;11.464;2023-06-26T15:09:37;24.80;79.50
612;DHT22;293;53.888;11.464;2023-06-26T15:12:05;24.70;81.30
612;DHT22;293;53.888;11.464;2023-06-26T15:14:33;24.70;78.40
612;DHT22;293;53.888;11.464;2023-06-26T15:17:00;24.50;78.90
612;DHT22;293;53.888;11.464;2023-06-26T15:19:27;24.50;79.40
612;DHT22;293;53.888;11.464;2023-06-26T15:21:54;24.50;79.10
612;DHT22;293;53.888;11.464;2023-06-26T15:24:20;24.60;80.20
612;DHT22;293;53.888;11.464;2023-06-26T15:26:47;24.70;80.50
612;DHT22;293;53.888;11.464;2023-06-26T15:29:14;24.90;79.00
612;DHT22;293;53.888;11.464;2023-06-26T15:31:44;24.90;74.50
612;DHT22;293;53.888;11.464;2023-06-26T15:34:11;24.90;73.50
612;DHT22;293;53.888;11.464;2023-06-26T15:36:38;25.00;72.70
612;DHT22;293;53.888;11.464;2023-06-26T15:39:05;24.80;72.50
612;DHT22;293;53.888;11.464;2023-06-26T15:41:32;24.90;72.00
612;DHT22;293;53.888;11.464;2023-06-26T15:44:02;24.80;71.90
612;DHT22;293;53.888;11.464;2023-06-26T15:46:29;25.00;71.70
612;DHT22;293;53.888;11.464;2023-06-26T15:48:57;25.00;71.80
612;DHT22;293;53.888;11.464;2023-06-26T15:51:24;24.80;70.60
612;DHT22;293;53.888;11.464;2023-06-26T15:53:51;24.80;72.10
612;DHT22;293;53.888;11.464;2023-06-26T15:56:19;24.90;71.90
612;DHT22;293;53.888;11.464;2023-06-26T15:58:46;24.90;71.80
612;DHT22;293;53.888;11.464;2023-06-26T16:01:14;24.90;71.30
612;DHT22;293;53.888;11.464;2023-06-26T16:03:41;24.70;69.60
612;DHT22;293;53.888;11.464;2023-06-26T16:06:10;24.40;69.40
612;DHT22;293;53.888;11.464;2023-06-26T16:08:38;24.20;70.20
612;DHT22;293;53.888;11.464;2023-06-26T16:11:06;24.10;72.00
612;DHT22;293;53.888;11.464;2023-06-26T16:13:33;23.90;73.70
612;DHT22;293;53.888;11.464;2023-06-26T16:16:00;23.90;73.70
612;DHT22;293;53.888;11.464;2023-06-26T16:18:27;23.80;74.90
612;DHT22;293;53.888;11.464;2023-06-26T16:20:54;23.80;75.30
612;DHT22;293;53.888;11.464;2023-06-26T16:23:23;23.70;75.10
612;DHT22;293;53.888;11.464;2023-06-26T16:25:49;23.50;77.10
612;DHT22;293;53.888;11.464;2023-06-26T16:28:17;23.40;78.10